createdAt,value
2022-11-03T00:02:01.502Z,2.33
2022-11-03T00:04:28.749Z,2.20
2022-11-03T00:06:57.398Z,2.25
2022-11-03T00:09:27.179Z,2.63
2022-11-03T00:11:55.039Z,2.60
2022-11-03T00:14:22.450Z,2.47
2022-11-03T00:16:49.675Z,2.60
2022-11-03T00:19:17.519Z,2.55
2022-11-03T00:21:45.606Z,2.75
2022-11-03T00:24:14.425Z,2.72
2022-11-03T00:26:41.477Z,2.58
2022-11-03T00:29:10.893Z,2.85
2022-11-03T00:31:39.354Z,2.45
2022-11-03T00:34:07.329Z,2.65
2022-11-03T00:36:35.881Z,2.45
2022-11-03T00:39:04.795Z,2.65
2022-11-03T00:41:33.487Z,2.90
2022-11-03T00:44:00.816Z,2.20
2022-11-03T00:46:28.816Z,2.92
2022-11-03T00:48:55.807Z,1.98
2022-11-03T00:51:24.262Z,2.88
2022-11-03T00:53:53.212Z,2.72
2022-11-03T00:56:22.305Z,2.70
2022-11-03T00:58:51.936Z,2.20
2022-11-03T01:01:21.138Z,2.30
2022-11-03T01:11:53.314Z,2.70
2022-11-03T01:14:22.071Z,2.70
2022-11-03T01:16:49.444Z,2.50
2022-11-03T01:19:16.466Z,2.72
2022-11-03T01:21:43.986Z,2.43
2022-11-03T01:24:11.292Z,2.25
2022-11-03T01:26:38.461Z,2.20
2022-11-03T01:31:34.028Z,2.42
2022-11-03T01:36:28.114Z,2.25
2022-11-03T01:38:56.371Z,3.15
2022-11-03T01:41:25.406Z,2.10
2022-11-03T01:44:27.197Z,2.30
2022-11-03T01:47:01.510Z,2.85
2022-11-03T01:49:33.913Z,2.30
2022-11-03T01:52:05.616Z,2.10
2022-11-03T01:54:36.266Z,2.38
2022-11-03T01:57:08.749Z,2.08
2022-11-03T01:59:36.642Z,2.15
2022-11-03T02:02:05.434Z,2.83
2022-11-03T02:04:34.328Z,2.75
2022-11-03T02:07:11.155Z,2.95
2022-11-03T02:09:38.120Z,2.05
2022-11-03T02:12:06.830Z,2.40
2022-11-03T02:14:35.840Z,2.17
2022-11-03T02:17:09.514Z,2.22
2022-11-03T02:19:40.943Z,3.20
2022-11-03T02:22:24.803Z,2.40
2022-11-03T02:24:54.289Z,1.90
2022-11-03T02:27:23.150Z,2.90
2022-11-03T02:29:50.266Z,2.37
2022-11-03T02:34:49.945Z,2.92
2022-11-03T02:39:47.731Z,2.53
2022-11-03T02:44:46.818Z,2.38
2022-11-03T02:49:46.505Z,1.95
2022-11-03T02:52:36.363Z,2.50
2022-11-03T02:55:10.842Z,2.33
2022-11-03T02:57:41.278Z,2.45
2022-11-03T03:00:11.767Z,2.40
2022-11-03T03:02:44.659Z,2.45
2022-11-03T03:05:14.422Z,2.53
2022-11-03T03:07:46.122Z,2.70
2022-11-03T03:10:16.957Z,2.00
2022-11-03T03:12:49.572Z,2.75
2022-11-03T03:15:20.703Z,2.10
2022-11-03T03:20:23.097Z,2.10
2022-11-03T03:22:55.590Z,2.50
2022-11-03T03:25:26.961Z,2.25
2022-11-03T03:57:34.690Z,2.33
2022-11-03T04:00:01.702Z,2.78
2022-11-03T04:07:44.833Z,2.33
2022-11-03T04:10:12.147Z,2.25
2022-11-03T04:12:59.291Z,2.20
2022-11-03T04:15:46.869Z,2.47
2022-11-03T04:18:32.541Z,2.20
2022-11-03T04:21:19.859Z,2.30
2022-11-03T04:23:46.933Z,2.70
2022-11-03T04:31:12.398Z,2.55
2022-11-03T04:33:40.311Z,2.97
2022-11-03T04:36:14.674Z,2.70
2022-11-03T04:38:43.975Z,2.47
2022-11-03T04:41:16.554Z,2.80
2022-11-03T04:43:46.385Z,2.67
2022-11-03T04:46:16.715Z,1.92
2022-11-03T04:48:44.884Z,2.40
2022-11-03T04:51:16.730Z,2.33
2022-11-03T04:53:48.760Z,2.92
2022-11-03T04:56:18.344Z,2.60
2022-11-03T04:58:47.740Z,2.50
2022-11-03T05:03:52.174Z,2.47
2022-11-03T05:06:22.307Z,2.33
2022-11-03T05:08:53.298Z,2.55
2022-11-03T05:11:28.389Z,1.92
2022-11-03T05:14:00.476Z,2.35
2022-11-03T05:16:28.413Z,2.25
2022-11-03T05:18:55.905Z,2.25
2022-11-03T05:21:26.952Z,2.75
2022-11-03T05:23:58.573Z,2.45
2022-11-03T05:26:29.716Z,2.33
2022-11-03T05:31:29.958Z,2.45
2022-11-03T05:33:58.554Z,2.53
2022-11-03T05:36:29.326Z,2.30
2022-11-03T05:38:59.163Z,2.42
2022-11-03T05:41:29.194Z,2.05
2022-11-03T05:43:59.178Z,2.33
2022-11-03T05:46:29.658Z,2.10
2022-11-03T05:48:57.947Z,2.50
2022-11-03T05:51:31.502Z,2.33
2022-11-03T05:54:01.522Z,2.78
2022-11-03T05:56:28.741Z,2.70
2022-11-03T05:58:57.513Z,2.25
2022-11-03T06:01:29.600Z,2.00
2022-11-03T06:03:57.438Z,2.63
2022-11-03T06:06:32.168Z,2.38
2022-11-03T06:09:02.051Z,2.30
2022-11-03T06:11:33.374Z,2.33
2022-11-03T06:14:00.794Z,2.50
2022-11-03T06:16:40.238Z,2.20
2022-11-03T06:19:25.466Z,2.08
2022-11-03T06:21:57.321Z,2.45
2022-11-03T06:24:30.378Z,2.80
2022-11-03T06:26:58.512Z,2.70
2022-11-03T06:29:26.138Z,2.50
2022-11-03T06:31:57.938Z,2.25
2022-11-03T06:34:39.173Z,2.42
2022-11-03T06:39:40.846Z,2.33
2022-11-03T06:42:15.857Z,1.95
2022-11-03T06:44:45.921Z,2.42
2022-11-03T06:47:23.143Z,2.20
2022-11-03T06:49:52.279Z,2.30
2022-11-03T06:52:30.356Z,2.50
2022-11-03T06:55:16.822Z,2.78
2022-11-03T06:57:47.329Z,2.65
2022-11-03T07:00:33.639Z,2.20
2022-11-03T07:03:08.276Z,2.78
2022-11-03T07:05:37.011Z,2.80
2022-11-03T07:08:22.475Z,3.10
2022-11-03T07:10:51.568Z,2.92
2022-11-03T07:13:23.858Z,2.30
2022-11-03T07:15:52.010Z,2.60
2022-11-03T07:18:23.389Z,2.40
2022-11-03T07:20:51.917Z,2.65
2022-11-03T07:23:23.095Z,2.83
2022-11-03T07:28:23.376Z,2.60
2022-11-03T07:30:50.982Z,2.90
2022-11-03T07:33:21.734Z,2.55
2022-11-03T07:36:14.496Z,2.85
2022-11-03T07:38:39.939Z,2.28
2022-11-03T07:41:09.407Z,2.95
2022-11-03T07:43:38.494Z,2.53
2022-11-03T07:46:06.732Z,2.53
2022-11-03T07:48:37.553Z,3.28
2022-11-03T07:51:16.296Z,2.42
2022-11-03T07:53:47.374Z,2.85
2022-11-03T07:56:18.849Z,3.45
2022-11-03T07:58:48.749Z,3.00
2022-11-03T08:01:26.573Z,2.78
2022-11-03T08:03:57.700Z,2.83
2022-11-03T08:06:24.904Z,3.13
2022-11-03T08:08:53.306Z,2.45
2022-11-03T08:11:22.118Z,2.50
2022-11-03T08:13:52.249Z,2.63
2022-11-03T08:16:19.595Z,2.80
2022-11-03T08:18:46.928Z,2.55
2022-11-03T08:21:14.194Z,2.65
2022-11-03T08:23:46.154Z,2.78
2022-11-03T08:26:16.436Z,2.40
2022-11-03T08:28:43.438Z,2.70
2022-11-03T08:36:09.881Z,2.75
2022-11-03T08:38:37.747Z,2.88
2022-11-03T08:41:05.145Z,2.30
2022-11-03T08:43:33.502Z,2.28
2022-11-03T08:46:09.681Z,2.45
2022-11-03T08:48:40.318Z,3.38
2022-11-03T08:51:10.465Z,2.65
2022-11-03T08:53:38.573Z,2.20
2022-11-03T08:56:10.408Z,3.35
2022-11-03T08:58:41.181Z,2.53
2022-11-03T09:01:08.237Z,2.97
2022-11-03T09:03:36.232Z,2.28
2022-11-03T09:06:03.282Z,2.38
2022-11-03T09:11:17.675Z,2.97
2022-11-03T09:13:46.427Z,2.72
2022-11-03T09:16:13.832Z,2.55
2022-11-03T09:18:41.215Z,2.37
2022-11-03T09:21:08.953Z,2.80
2022-11-03T09:23:36.431Z,3.20
2022-11-03T09:26:03.509Z,2.80
2022-11-03T09:28:30.644Z,2.33
2022-11-03T09:30:59.372Z,2.60
2022-11-03T09:33:26.449Z,2.20
2022-11-03T09:35:53.569Z,2.70
2022-11-03T09:38:20.537Z,2.92
2022-11-03T09:43:16.279Z,2.50
2022-11-03T09:45:43.449Z,2.85
2022-11-03T09:48:12.846Z,2.40
2022-11-03T09:50:40.059Z,2.25
2022-11-03T09:53:09.563Z,2.15
2022-11-03T09:55:36.978Z,2.60
2022-11-03T09:58:14.969Z,2.88
2022-11-03T10:00:42.185Z,2.58
2022-11-03T10:03:12.873Z,2.97
2022-11-03T10:05:41.364Z,3.10
2022-11-03T10:08:21.535Z,2.70
2022-11-03T10:10:50.317Z,2.50
2022-11-03T10:13:24.026Z,3.28
2022-11-03T10:15:51.041Z,2.85
2022-11-03T10:18:20.210Z,2.80
2022-11-03T10:20:47.465Z,2.88
2022-11-03T10:23:14.538Z,3.42
2022-11-03T10:25:43.448Z,2.75
2022-11-03T10:28:16.789Z,2.65
2022-11-03T10:33:42.246Z,2.50
2022-11-03T10:36:30.048Z,2.60
2022-11-03T10:38:57.471Z,2.60
2022-11-03T10:41:26.105Z,2.67
2022-11-03T10:44:01.839Z,2.85
2022-11-03T10:46:49.186Z,2.80
2022-11-03T10:49:19.699Z,2.90
2022-11-03T10:51:49.612Z,2.60
2022-11-03T10:54:18.673Z,2.75
2022-11-03T10:56:47.058Z,2.60
2022-11-03T10:59:18.038Z,2.65
2022-11-03T11:01:45.327Z,3.10
2022-11-03T11:04:15.243Z,2.88
2022-11-03T11:06:44.692Z,2.70
2022-11-03T11:09:14.373Z,2.85
2022-11-03T11:11:59.176Z,2.65
2022-11-03T11:14:38.009Z,2.70
2022-11-03T11:17:06.343Z,2.33
2022-11-03T11:20:06.669Z,2.50
2022-11-03T11:25:03.648Z,2.25
2022-11-03T11:31:00.824Z,3.00
2022-11-03T11:33:29.986Z,2.80
2022-11-03T11:36:21.667Z,3.10
2022-11-03T11:39:12.347Z,2.60
2022-11-03T11:42:08.910Z,2.70
2022-11-03T11:45:02.922Z,2.75
2022-11-03T11:47:40.984Z,2.70
2022-11-03T11:50:28.283Z,2.95
2022-11-03T11:53:14.302Z,2.78
2022-11-03T12:03:17.586Z,2.55
2022-11-03T12:05:50.641Z,2.55
2022-11-03T12:10:54.902Z,5.90
2022-11-03T12:13:47.568Z,2.85
2022-11-03T12:16:34.543Z,2.38
2022-11-03T12:19:34.404Z,2.08
2022-11-03T12:22:01.961Z,2.03
2022-11-03T12:24:51.029Z,2.05
2022-11-03T12:27:43.805Z,2.03
2022-11-03T12:30:17.320Z,2.58
2022-11-03T12:32:45.040Z,1.98
2022-11-03T12:35:13.532Z,2.45
2022-11-03T12:37:42.487Z,1.70
2022-11-03T12:54:57.698Z,2.00
2022-11-03T12:57:24.926Z,2.58
2022-11-03T12:59:52.422Z,1.75
2022-11-03T13:02:21.292Z,1.73
2022-11-03T13:04:48.451Z,1.92
2022-11-03T13:07:18.151Z,2.05
2022-11-03T13:09:49.560Z,2.00
2022-11-03T13:12:32.193Z,1.70
2022-11-03T13:15:00.845Z,1.98
2022-11-03T13:17:40.251Z,1.50
2022-11-03T13:20:14.771Z,1.95
2022-11-03T13:22:42.150Z,2.05
2022-11-03T13:25:09.884Z,2.25
2022-11-03T13:27:37.352Z,1.90
2022-11-03T13:30:05.675Z,2.03
2022-11-03T13:32:34.555Z,2.00
2022-11-03T13:35:01.898Z,2.47
2022-11-03T13:37:29.195Z,2.13
2022-11-03T13:39:56.308Z,2.30
2022-11-03T13:42:23.795Z,1.92
2022-11-03T13:44:53.346Z,2.15
2022-11-03T13:47:34.293Z,2.50
2022-11-03T13:50:14.574Z,2.40
2022-11-03T13:52:42.825Z,2.17
2022-11-03T14:00:46.837Z,1.92
2022-11-03T14:06:02.887Z,2.30
2022-11-03T14:08:30.083Z,2.65
2022-11-03T14:10:57.563Z,3.00
2022-11-03T14:13:24.669Z,2.40
2022-11-03T14:15:52.170Z,2.30
2022-11-03T14:18:19.182Z,2.25
2022-11-03T14:20:46.222Z,2.40
2022-11-03T14:23:14.931Z,2.53
2022-11-03T14:25:41.991Z,2.30
2022-11-03T14:28:09.345Z,2.20
2022-11-03T14:30:36.405Z,2.50
2022-11-03T14:33:03.777Z,2.50
2022-11-03T14:35:30.863Z,2.53
2022-11-03T14:37:57.939Z,2.17
2022-11-03T14:40:58.561Z,2.20
2022-11-03T14:43:25.563Z,2.40
2022-11-03T14:45:52.641Z,2.72
2022-11-03T14:48:19.687Z,7.80
2022-11-03T14:50:46.644Z,3.65
2022-11-03T14:53:14.151Z,2.75
2022-11-03T14:55:42.831Z,2.67
2022-11-03T14:58:10.016Z,2.70
2022-11-03T15:00:40.431Z,3.05
2022-11-03T15:03:08.031Z,2.40
2022-11-03T15:05:47.174Z,2.33
2022-11-03T15:08:16.259Z,2.30
2022-11-03T15:10:44.737Z,2.17
2022-11-03T15:13:11.955Z,2.35
2022-11-03T15:15:41.581Z,2.60
2022-11-03T15:18:09.361Z,2.17
2022-11-03T15:20:36.510Z,2.10
2022-11-03T15:25:52.280Z,1.98
2022-11-03T15:28:21.109Z,1.98
2022-11-03T15:30:51.222Z,2.30
2022-11-03T15:33:18.242Z,3.00
2022-11-03T15:35:46.173Z,2.30
2022-11-03T15:38:13.354Z,2.42
2022-11-03T15:40:40.391Z,2.17
2022-11-03T15:43:09.124Z,2.72
2022-11-03T15:45:36.217Z,2.90
2022-11-03T15:48:04.184Z,2.22
2022-11-03T15:50:31.553Z,2.67
2022-11-03T15:52:58.749Z,2.53
2022-11-03T15:55:26.185Z,2.50
2022-11-03T15:57:53.577Z,2.50
2022-11-03T16:00:22.086Z,2.60
2022-11-03T16:02:49.607Z,2.58
2022-11-03T16:05:22.278Z,2.67
2022-11-03T16:07:51.992Z,2.83
2022-11-03T16:10:19.117Z,3.05
2022-11-03T16:12:46.194Z,4.07
2022-11-03T16:15:13.471Z,2.65
2022-11-03T16:17:45.541Z,3.03
2022-11-03T16:20:12.967Z,2.83
2022-11-03T16:22:40.008Z,3.00
2022-11-03T16:25:12.335Z,2.92
2022-11-03T16:27:41.938Z,2.38
2022-11-03T16:30:11.624Z,2.97
2022-11-03T16:32:38.852Z,3.90
2022-11-03T16:35:08.570Z,3.97
2022-11-03T16:37:35.563Z,5.18
2022-11-03T16:40:02.962Z,6.50
2022-11-03T16:42:30.260Z,3.80
2022-11-03T16:44:58.082Z,3.88
2022-11-03T16:47:27.070Z,3.25
2022-11-03T16:49:54.982Z,4.50
2022-11-03T16:52:23.909Z,4.40
2022-11-03T16:54:54.322Z,4.30
2022-11-03T16:57:21.387Z,3.47
2022-11-03T16:59:48.404Z,3.22
2022-11-03T17:02:16.692Z,3.58
2022-11-03T17:04:44.114Z,4.05
2022-11-03T17:07:11.084Z,3.88
2022-11-03T17:09:39.873Z,4.00
2022-11-03T17:12:07.060Z,4.10
2022-11-03T17:14:34.203Z,4.38
2022-11-03T17:17:04.475Z,3.92
2022-11-03T17:19:31.556Z,4.27
2022-11-03T17:21:58.539Z,4.30
2022-11-03T17:24:25.541Z,4.13
2022-11-03T17:26:57.905Z,4.78
2022-11-03T17:29:35.253Z,4.70
2022-11-03T17:32:05.923Z,4.70
2022-11-03T17:34:33.297Z,5.32
2022-11-03T17:37:01.089Z,5.63
2022-11-03T17:39:33.737Z,5.32
2022-11-03T17:42:13.641Z,5.65
2022-11-03T17:44:40.683Z,6.28
2022-11-03T17:47:07.987Z,6.20
2022-11-03T17:49:34.976Z,6.28
2022-11-03T17:52:02.270Z,6.32
2022-11-03T17:54:31.251Z,6.88
2022-11-03T17:56:59.939Z,7.38
2022-11-03T17:59:29.322Z,6.78
2022-11-03T18:01:56.813Z,7.03
2022-11-03T18:04:23.962Z,6.80
2022-11-03T18:06:50.985Z,6.93
2022-11-03T18:09:18.185Z,7.32
2022-11-03T18:12:03.797Z,8.05
2022-11-03T18:14:32.756Z,7.97
2022-11-03T18:16:59.929Z,7.82
2022-11-03T18:19:27.334Z,10.85
2022-11-03T18:21:54.369Z,8.40
2022-11-03T18:24:21.856Z,8.20
2022-11-03T18:26:48.968Z,7.93
2022-11-03T18:29:16.134Z,8.15
2022-11-03T18:31:49.574Z,8.35
2022-11-03T18:34:21.739Z,8.20
2022-11-03T18:36:49.247Z,7.72
2022-11-03T18:39:22.105Z,7.70
2022-11-03T18:41:49.199Z,8.63
2022-11-03T18:44:19.821Z,8.75
2022-11-03T18:46:49.645Z,8.80
2022-11-03T18:49:16.801Z,10.63
2022-11-03T18:51:48.014Z,8.85
2022-11-03T18:56:44.181Z,8.10
2022-11-03T18:59:20.233Z,8.20
2022-11-03T19:01:49.311Z,8.07
2022-11-03T19:04:16.568Z,7.50
2022-11-03T19:06:45.826Z,8.20
2022-11-03T19:09:15.792Z,7.80
2022-11-03T19:11:44.570Z,8.27
2022-11-03T19:14:16.340Z,10.35
2022-11-03T19:16:55.732Z,9.18
2022-11-03T19:19:32.600Z,10.52
2022-11-03T19:21:59.699Z,9.70
2022-11-03T19:24:26.907Z,9.65
2022-11-03T19:26:57.136Z,9.38
2022-11-03T19:29:27.099Z,10.27
2022-11-03T19:31:55.053Z,9.13
2022-11-03T19:34:25.747Z,10.52
2022-11-03T19:36:54.167Z,8.20
2022-11-03T19:39:29.287Z,12.00
2022-11-03T19:42:15.554Z,9.80
2022-11-03T19:44:42.651Z,12.80
2022-11-03T19:47:13.859Z,10.40
2022-11-03T19:52:13.067Z,9.02
2022-11-03T19:54:40.732Z,9.05
2022-11-03T19:57:10.814Z,9.73
2022-11-03T19:59:37.890Z,9.20
2022-11-03T20:02:05.069Z,10.10
2022-11-03T20:04:32.195Z,10.50
2022-11-03T20:06:59.772Z,9.85
2022-11-03T20:12:04.688Z,10.43
2022-11-03T20:16:59.659Z,10.57
2022-11-03T20:19:26.776Z,9.77
2022-11-03T20:21:54.044Z,11.50
2022-11-03T20:24:21.151Z,10.82
2022-11-03T20:26:49.790Z,9.07
2022-11-03T20:29:17.211Z,9.73
2022-11-03T20:31:44.859Z,8.90
2022-11-03T20:34:13.958Z,8.80
2022-11-03T20:36:42.262Z,8.88
2022-11-03T20:39:15.647Z,8.55
2022-11-03T20:41:55.603Z,8.65
2022-11-03T20:44:27.794Z,9.55
2022-11-03T20:46:55.197Z,9.45
2022-11-03T20:49:26.121Z,9.15
2022-11-03T20:51:54.651Z,9.57
2022-11-03T20:54:26.431Z,11.07
2022-11-03T20:56:54.001Z,9.65
2022-11-03T20:59:25.016Z,11.35
2022-11-03T21:01:57.623Z,12.32
2022-11-03T21:04:30.757Z,10.82
2022-11-03T21:07:08.662Z,10.05
2022-11-03T21:09:42.813Z,10.95
2022-11-03T21:12:14.218Z,10.80
2022-11-03T21:15:05.343Z,10.52
2022-11-03T21:20:31.905Z,10.27
2022-11-03T21:22:59.997Z,10.32
2022-11-03T21:25:27.089Z,10.63
2022-11-03T21:27:54.692Z,10.00
2022-11-03T21:30:22.610Z,10.32
2022-11-03T21:32:51.139Z,10.68
2022-11-03T21:35:20.133Z,11.25
2022-11-03T21:37:47.623Z,11.23
2022-11-03T21:40:14.920Z,10.30
2022-11-03T21:43:00.614Z,10.10
2022-11-03T21:45:27.956Z,10.77
2022-11-03T21:48:15.220Z,10.57
2022-11-03T21:50:42.928Z,10.98
2022-11-03T21:53:11.080Z,9.48
2022-11-03T21:55:38.562Z,9.63
2022-11-03T21:58:06.019Z,9.98
2022-11-03T22:00:34.252Z,9.75
2022-11-03T22:03:03.018Z,8.77
2022-11-03T22:05:30.746Z,7.97
2022-11-03T22:07:58.098Z,9.07
2022-11-03T22:10:25.402Z,8.13
2022-11-03T22:12:52.829Z,7.07
2022-11-03T22:15:38.448Z,7.68
2022-11-03T22:18:07.616Z,6.18
2022-11-03T22:20:55.162Z,5.63
2022-11-03T22:23:40.623Z,4.88
2022-11-03T22:26:28.689Z,3.25
2022-11-03T22:29:16.443Z,1.90
2022-11-03T22:31:43.667Z,2.05
2022-11-03T22:34:44.927Z,2.13
2022-11-03T22:37:11.928Z,2.47
2022-11-03T22:39:57.384Z,3.35
2022-11-03T22:45:29.650Z,3.40
2022-11-03T22:47:57.139Z,3.40
2022-11-03T22:50:25.882Z,3.45
2022-11-03T22:52:52.851Z,4.95
2022-11-03T22:55:19.816Z,3.65
2022-11-03T22:57:46.876Z,3.83
2022-11-03T23:00:15.083Z,3.70
2022-11-03T23:02:42.242Z,3.45
2022-11-03T23:05:09.711Z,2.80
2022-11-03T23:07:41.244Z,2.83
2022-11-03T23:10:09.636Z,2.10
2022-11-03T23:12:36.606Z,2.50
2022-11-03T23:15:42.372Z,2.70
2022-11-03T23:18:28.532Z,3.30
2022-11-03T23:21:08.525Z,3.53
2022-11-03T23:23:56.475Z,4.88
2022-11-03T23:26:25.147Z,5.20
2022-11-03T23:28:52.128Z,5.30
2022-11-03T23:31:19.101Z,6.68
2022-11-03T23:33:46.157Z,7.47
2022-11-03T23:36:14.806Z,7.63
2022-11-03T23:38:44.115Z,7.95
2022-11-03T23:41:12.802Z,7.32
2022-11-03T23:43:40.019Z,8.65
2022-11-03T23:46:25.753Z,7.80
2022-11-03T23:48:53.397Z,7.78
2022-11-03T23:51:22.414Z,7.60
2022-11-03T23:53:51.767Z,7.57
2022-11-03T23:56:39.342Z,7.63
2022-11-03T23:59:07.381Z,7.38
